createdAt,value
2023-05-12T00:00:37.963Z,87958.00
2023-05-12T00:01:37.987Z,87960.00
2023-05-12T00:02:38.119Z,87962.00
2023-05-12T00:03:38.156Z,87960.00
2023-05-12T00:04:38.184Z,87964.00
2023-05-12T00:05:38.149Z,87960.00
2023-05-12T00:06:38.176Z,87964.00
2023-05-12T00:07:38.187Z,87964.00
2023-05-12T00:08:38.248Z,87962.00
2023-05-12T00:09:38.293Z,87964.00
2023-05-12T00:10:38.323Z,87966.00
2023-05-12T00:11:38.310Z,87966.00
2023-05-12T00:12:38.341Z,87966.00
2023-05-12T00:13:38.447Z,87964.00
2023-05-12T00:14:38.405Z,87964.00
2023-05-12T00:15:38.450Z,87962.00
2023-05-12T00:16:38.511Z,87960.00
2023-05-12T00:17:38.544Z,87958.00
2023-05-12T00:18:38.609Z,87958.00
2023-05-12T00:19:38.566Z,87958.00
2023-05-12T00:20:38.532Z,87956.00
2023-05-12T00:21:38.509Z,87956.00
2023-05-12T00:22:38.480Z,87958.00
2023-05-12T00:23:38.454Z,87958.00
2023-05-12T00:24:38.438Z,87958.00
2023-05-12T00:25:38.419Z,87958.00
2023-05-12T00:26:38.395Z,87958.00
2023-05-12T00:27:38.353Z,87956.00
2023-05-12T00:28:38.380Z,87952.00
2023-05-12T00:29:38.419Z,87950.00
2023-05-12T00:30:38.471Z,87948.00
2023-05-12T00:31:38.541Z,87948.00
2023-05-12T00:32:38.571Z,87946.00
2023-05-12T00:33:38.554Z,87944.00
2023-05-12T00:34:38.596Z,87942.00
2023-05-12T00:35:38.632Z,87944.00
2023-05-12T00:36:38.647Z,87944.00
2023-05-12T00:37:38.619Z,87940.00
2023-05-12T00:38:38.611Z,87942.00
2023-05-12T00:39:38.564Z,87942.00
2023-05-12T00:40:38.536Z,87942.00
2023-05-12T00:41:38.509Z,87942.00
2023-05-12T00:42:38.478Z,87944.00
2023-05-12T00:43:38.465Z,87946.00
2023-05-12T00:44:38.425Z,87946.00
2023-05-12T00:45:38.508Z,87944.00
2023-05-12T00:46:38.488Z,87946.00
2023-05-12T00:47:38.641Z,87944.00
2023-05-12T00:48:38.577Z,87944.00
2023-05-12T00:49:38.589Z,87942.00
2023-05-12T00:50:38.631Z,87944.00
2023-05-12T00:51:38.670Z,87946.00
2023-05-12T00:52:38.702Z,87944.00
2023-05-12T00:53:49.349Z,87946.00
2023-05-12T00:54:38.726Z,87946.00
2023-05-12T00:55:38.707Z,87944.00
2023-05-12T00:56:38.666Z,87940.00
2023-05-12T00:57:38.638Z,87942.00
2023-05-12T00:58:38.661Z,87942.00
2023-05-12T00:59:38.607Z,87944.00
2023-05-12T01:00:38.584Z,87944.00
2023-05-12T01:01:38.578Z,87942.00
2023-05-12T01:02:38.624Z,87942.00
2023-05-12T01:03:38.605Z,87944.00
2023-05-12T01:04:38.544Z,87944.00
2023-05-12T01:05:38.570Z,87940.00
2023-05-12T01:06:38.590Z,87942.00
2023-05-12T01:07:38.632Z,87942.00
2023-05-12T01:08:38.693Z,87942.00
2023-05-12T01:09:38.676Z,87942.00
2023-05-12T01:10:38.713Z,87942.00
2023-05-12T01:11:38.732Z,87942.00
2023-05-12T01:12:38.779Z,87944.00
2023-05-12T01:13:38.809Z,87942.00
2023-05-12T01:14:38.851Z,87944.00
2023-05-12T01:15:38.826Z,87944.00
2023-05-12T01:16:38.807Z,87944.00
2023-05-12T01:17:39.012Z,87944.00
2023-05-12T01:18:38.815Z,87948.00
2023-05-12T01:19:38.713Z,87946.00
2023-05-12T01:20:38.741Z,87946.00
2023-05-12T01:21:38.670Z,87944.00
2023-05-12T01:22:38.653Z,87944.00
2023-05-12T01:23:38.611Z,87944.00
2023-05-12T01:24:38.576Z,87946.00
2023-05-12T01:25:38.563Z,87944.00
2023-05-12T01:26:38.555Z,87944.00
2023-05-12T01:27:38.528Z,87944.00
2023-05-12T01:28:38.580Z,87944.00
2023-05-12T01:29:38.613Z,87944.00
2023-05-12T01:30:38.584Z,87942.00
2023-05-12T01:31:38.710Z,87942.00
2023-05-12T01:32:38.658Z,87940.00
2023-05-12T01:33:38.647Z,87940.00
2023-05-12T01:34:38.605Z,87940.00
2023-05-12T01:35:38.619Z,87938.00
2023-05-12T01:36:38.654Z,87938.00
2023-05-12T01:37:38.683Z,87936.00
2023-05-12T01:38:38.689Z,87936.00
2023-05-12T01:39:38.693Z,87934.00
2023-05-12T01:40:38.683Z,87934.00
2023-05-12T01:41:38.706Z,87936.00
2023-05-12T01:42:38.780Z,87936.00
2023-05-12T01:43:38.703Z,87938.00
2023-05-12T01:44:38.676Z,87936.00
2023-05-12T01:45:38.678Z,87938.00
2023-05-12T01:46:38.741Z,87938.00
2023-05-12T01:47:38.736Z,87942.00
2023-05-12T01:48:38.677Z,87942.00
2023-05-12T01:49:38.640Z,87942.00
2023-05-12T01:50:38.641Z,87942.00
2023-05-12T01:51:38.666Z,87942.00
2023-05-12T01:52:38.616Z,87940.00
2023-05-12T01:53:38.626Z,87942.00
2023-05-12T01:54:38.624Z,87940.00
2023-05-12T01:55:38.596Z,87940.00
2023-05-12T01:56:38.585Z,87940.00
2023-05-12T01:57:38.581Z,87938.00
2023-05-12T01:58:38.587Z,87938.00
2023-05-12T01:59:38.543Z,87938.00
2023-05-12T02:00:38.527Z,87938.00
2023-05-12T02:01:38.543Z,87942.00
2023-05-12T02:02:39.328Z,87940.00
2023-05-12T02:03:38.594Z,87946.00
2023-05-12T02:04:38.501Z,87946.00
2023-05-12T02:05:38.506Z,87946.00
2023-05-12T02:06:38.504Z,87944.00
2023-05-12T02:07:38.492Z,87944.00
2023-05-12T02:08:38.472Z,87944.00
2023-05-12T02:09:38.414Z,87944.00
2023-05-12T02:10:38.392Z,87942.00
2023-05-12T02:11:38.358Z,87944.00
2023-05-12T02:12:38.330Z,87942.00
2023-05-12T02:13:38.299Z,87940.00
2023-05-12T02:14:38.300Z,87940.00
2023-05-12T02:15:38.253Z,87940.00
2023-05-12T02:16:38.259Z,87940.00
2023-05-12T02:17:38.197Z,87938.00
2023-05-12T02:18:38.182Z,87938.00
2023-05-12T02:19:38.131Z,87938.00
2023-05-12T02:20:38.091Z,87940.00
2023-05-12T02:21:38.074Z,87940.00
2023-05-12T02:22:38.031Z,87938.00
2023-05-12T02:23:38.034Z,87938.00
2023-05-12T02:24:38.008Z,87938.00
2023-05-12T02:25:37.953Z,87940.00
2023-05-12T02:26:37.930Z,87936.00
2023-05-12T02:27:37.881Z,87936.00
2023-05-12T02:28:37.860Z,87934.00
2023-05-12T02:29:37.827Z,87932.00
2023-05-12T02:30:37.803Z,87934.00
2023-05-12T02:31:37.791Z,87932.00
2023-05-12T02:32:37.816Z,87934.00
2023-05-12T02:33:37.759Z,87934.00
2023-05-12T02:34:37.734Z,87936.00
2023-05-12T02:35:37.735Z,87938.00
2023-05-12T02:36:37.747Z,87936.00
2023-05-12T02:37:37.753Z,87936.00
2023-05-12T02:38:37.751Z,87936.00
2023-05-12T02:39:37.734Z,87934.00
2023-05-12T02:40:37.715Z,87932.00
2023-05-12T02:41:37.696Z,87936.00
2023-05-12T02:42:37.691Z,87936.00
2023-05-12T02:43:37.664Z,87940.00
2023-05-12T02:44:37.654Z,87936.00
2023-05-12T02:45:37.670Z,87938.00
2023-05-12T02:46:37.593Z,87940.00
2023-05-12T02:47:37.703Z,87938.00
2023-05-12T02:48:37.548Z,87938.00
2023-05-12T02:49:37.512Z,87936.00
2023-05-12T02:50:37.495Z,87936.00
2023-05-12T02:51:37.483Z,87936.00
2023-05-12T02:52:37.465Z,87936.00
2023-05-12T02:53:37.438Z,87940.00
2023-05-12T02:54:37.429Z,87940.00
2023-05-12T02:55:37.419Z,87934.00
2023-05-12T02:56:37.417Z,87934.00
2023-05-12T02:57:37.399Z,87934.00
2023-05-12T02:58:37.401Z,87932.00
2023-05-12T02:59:37.390Z,87930.00
2023-05-12T03:00:37.403Z,87928.00
2023-05-12T03:01:37.410Z,87930.00
2023-05-12T03:02:37.447Z,87930.00
2023-05-12T03:03:37.562Z,87930.00
2023-05-12T03:04:37.418Z,87930.00
2023-05-12T03:05:37.409Z,87930.00
2023-05-12T03:06:37.418Z,87932.00
2023-05-12T03:07:37.430Z,87932.00
2023-05-12T03:08:37.452Z,87932.00
2023-05-12T03:09:37.474Z,87932.00
2023-05-12T03:10:37.502Z,87932.00
2023-05-12T03:11:37.538Z,87932.00
2023-05-12T03:12:37.548Z,87934.00
2023-05-12T03:13:37.572Z,87934.00
2023-05-12T03:14:37.590Z,87932.00
2023-05-12T03:15:37.614Z,87932.00
2023-05-12T03:16:37.719Z,87932.00
2023-05-12T03:17:37.696Z,87932.00
2023-05-12T03:18:37.721Z,87934.00
2023-05-12T03:19:37.741Z,87936.00
2023-05-12T03:20:37.787Z,87934.00
2023-05-12T03:21:37.823Z,87932.00
2023-05-12T03:22:37.872Z,87938.00
2023-05-12T03:23:37.896Z,87934.00
2023-05-12T03:24:37.946Z,87934.00
2023-05-12T03:25:37.979Z,87930.00
2023-05-12T03:26:38.044Z,87928.00
2023-05-12T03:27:38.047Z,87930.00
2023-05-12T03:28:38.108Z,87930.00
2023-05-12T03:29:38.149Z,87928.00
2023-05-12T03:30:38.219Z,87926.00
2023-05-12T03:31:38.290Z,87928.00
2023-05-12T03:32:38.330Z,87926.00
2023-05-12T03:33:38.327Z,87928.00
2023-05-12T03:34:38.391Z,87926.00
2023-05-12T03:35:38.435Z,87930.00
2023-05-12T03:36:38.464Z,87926.00
2023-05-12T03:37:38.591Z,87930.00
2023-05-12T03:38:38.617Z,87926.00
2023-05-12T03:39:38.602Z,87926.00
2023-05-12T03:40:38.521Z,87928.00
2023-05-12T03:41:38.500Z,87926.00
2023-05-12T03:42:38.478Z,87928.00
2023-05-12T03:43:38.446Z,87930.00
2023-05-12T03:44:38.437Z,87928.00
2023-05-12T03:45:38.416Z,87930.00
2023-05-12T03:46:38.532Z,87928.00
2023-05-12T03:47:38.455Z,87928.00
2023-05-12T03:48:38.344Z,87928.00
2023-05-12T03:49:38.323Z,87928.00
2023-05-12T03:50:38.310Z,87928.00
2023-05-12T03:51:38.316Z,87926.00
2023-05-12T03:52:38.293Z,87926.00
2023-05-12T03:53:38.231Z,87928.00
2023-05-12T03:54:38.233Z,87926.00
2023-05-12T03:55:38.204Z,87928.00
2023-05-12T03:56:38.202Z,87922.00
2023-05-12T03:57:38.171Z,87922.00
2023-05-12T03:58:38.127Z,87924.00
2023-05-12T03:59:38.147Z,87928.00
2023-05-12T04:00:39.030Z,87926.00
2023-05-12T04:01:38.220Z,87926.00
2023-05-12T04:02:38.278Z,87926.00
2023-05-12T04:03:38.157Z,87926.00
2023-05-12T04:04:38.099Z,87926.00
2023-05-12T04:05:38.110Z,87928.00
2023-05-12T04:06:38.093Z,87922.00
2023-05-12T04:07:38.045Z,87922.00
2023-05-12T04:08:40.327Z,87924.00
2023-05-12T04:09:38.021Z,87924.00
2023-05-12T04:10:37.985Z,87924.00
2023-05-12T04:11:37.981Z,87926.00
2023-05-12T04:12:37.938Z,87924.00
2023-05-12T04:13:37.941Z,87926.00
2023-05-12T04:14:42.928Z,87926.00
2023-05-12T04:15:38.876Z,87926.00
2023-05-12T04:16:37.892Z,87928.00
2023-05-12T04:17:37.880Z,87928.00
2023-05-12T04:18:37.842Z,87930.00
2023-05-12T04:19:37.815Z,87926.00
2023-05-12T04:20:37.802Z,87926.00
2023-05-12T04:21:37.795Z,87928.00
2023-05-12T04:22:37.816Z,87926.00
2023-05-12T04:23:37.767Z,87928.00
2023-05-12T04:24:37.740Z,87928.00
2023-05-12T04:25:37.721Z,87930.00
2023-05-12T04:26:37.696Z,87928.00
2023-05-12T04:27:37.667Z,87930.00
2023-05-12T04:28:37.638Z,87928.00
2023-05-12T04:29:37.651Z,87932.00
2023-05-12T04:30:37.695Z,87934.00
2023-05-12T04:31:37.749Z,87932.00
2023-05-12T04:32:37.849Z,87934.00
2023-05-12T04:33:37.772Z,87932.00
2023-05-12T04:34:37.805Z,87934.00
2023-05-12T04:35:37.812Z,87936.00
2023-05-12T04:36:37.800Z,87936.00
2023-05-12T04:37:37.854Z,87934.00
2023-05-12T04:38:37.838Z,87936.00
2023-05-12T04:39:37.867Z,87934.00
2023-05-12T04:40:37.846Z,87936.00
2023-05-12T04:41:37.837Z,87936.00
2023-05-12T04:42:37.858Z,87936.00
2023-05-12T04:44:37.922Z,87942.00
2023-05-12T04:45:37.902Z,87946.00
2023-05-12T04:46:37.901Z,87950.00
2023-05-12T04:47:37.905Z,87948.00
2023-05-12T04:48:37.873Z,87950.00
2023-05-12T04:49:37.855Z,87948.00
2023-05-12T04:50:37.839Z,87950.00
2023-05-12T04:51:37.841Z,87952.00
2023-05-12T04:52:37.829Z,87950.00
2023-05-12T04:53:37.830Z,87948.00
2023-05-12T04:54:37.802Z,87952.00
2023-05-12T04:55:37.778Z,87946.00
2023-05-12T04:56:37.775Z,87950.00
2023-05-12T04:57:37.764Z,87946.00
2023-05-12T04:58:37.742Z,87948.00
2023-05-12T04:59:38.834Z,87952.00
2023-05-12T05:00:37.738Z,87950.00
2023-05-12T05:01:37.760Z,87952.00
2023-05-12T05:02:37.778Z,87954.00
2023-05-12T05:03:37.815Z,87952.00
2023-05-12T05:04:37.705Z,87950.00
2023-05-12T05:05:37.706Z,87952.00
2023-05-12T05:06:37.711Z,87952.00
2023-05-12T05:07:37.684Z,87952.00
2023-05-12T05:08:37.705Z,87952.00
2023-05-12T05:09:37.675Z,87954.00
2023-05-12T05:10:37.649Z,87956.00
2023-05-12T05:11:37.665Z,87954.00
2023-05-12T05:12:37.686Z,87954.00
2023-05-12T05:13:37.676Z,87954.00
2023-05-12T05:14:37.635Z,87956.00
2023-05-12T05:15:37.697Z,87954.00
2023-05-12T05:16:37.642Z,87958.00
2023-05-12T05:17:37.667Z,87958.00
2023-05-12T05:18:37.760Z,87956.00
2023-05-12T05:19:49.289Z,87958.00
2023-05-12T05:20:40.770Z,87956.00
2023-05-12T05:21:37.611Z,87958.00
2023-05-12T05:22:37.606Z,87956.00
2023-05-12T05:23:37.595Z,87956.00
2023-05-12T05:24:37.602Z,87958.00
2023-05-12T05:25:37.595Z,87956.00
2023-05-12T05:26:37.563Z,87958.00
2023-05-12T05:27:37.723Z,87958.00
2023-05-12T05:28:38.296Z,87960.00
2023-05-12T05:29:37.634Z,87962.00
2023-05-12T05:30:37.661Z,87962.00
2023-05-12T05:31:37.871Z,87964.00
2023-05-12T05:32:37.825Z,87964.00
2023-05-12T05:33:37.716Z,87964.00
2023-05-12T05:34:37.879Z,87962.00
2023-05-12T05:35:37.780Z,87962.00
2023-05-12T05:36:37.790Z,87962.00
2023-05-12T05:37:37.789Z,87964.00
2023-05-12T05:38:37.781Z,87964.00
2023-05-12T05:39:37.841Z,87964.00
2023-05-12T05:40:51.601Z,87966.00
2023-05-12T05:41:38.786Z,87962.00
2023-05-12T05:42:37.860Z,87962.00
2023-05-12T05:43:37.815Z,87962.00
2023-05-12T05:44:37.810Z,87960.00
2023-05-12T05:45:37.888Z,87962.00
2023-05-12T05:46:37.837Z,87960.00
2023-05-12T05:47:38.602Z,87960.00
2023-05-12T05:48:37.754Z,87962.00
2023-05-12T05:49:37.904Z,87962.00
2023-05-12T05:50:37.735Z,87962.00
2023-05-12T05:51:37.742Z,87962.00
2023-05-12T05:52:37.892Z,87964.00
2023-05-12T05:53:37.710Z,87966.00
2023-05-12T05:54:37.758Z,87966.00
2023-05-12T05:55:37.698Z,87964.00
2023-05-12T05:56:37.850Z,87962.00
2023-05-12T05:57:37.711Z,87962.00
2023-05-12T05:58:37.669Z,87966.00
2023-05-12T05:59:37.731Z,87968.00
2023-05-12T06:00:37.662Z,87968.00
2023-05-12T06:01:37.718Z,87968.00
2023-05-12T06:02:37.798Z,87968.00
2023-05-12T06:03:37.671Z,87968.00
2023-05-12T06:04:37.651Z,87970.00
2023-05-12T06:05:37.722Z,87970.00
2023-05-12T06:06:37.783Z,87972.00
2023-05-12T06:07:37.667Z,87972.00
2023-05-12T06:08:37.712Z,87972.00
2023-05-12T06:09:37.675Z,87972.00
2023-05-12T06:10:37.689Z,87974.00
2023-05-12T06:11:37.637Z,87972.00
2023-05-12T06:12:37.631Z,87970.00
2023-05-12T06:13:37.725Z,87968.00
2023-05-12T06:14:37.917Z,87966.00
2023-05-12T06:15:37.626Z,87966.00
2023-05-12T06:16:37.599Z,87966.00
2023-05-12T06:17:37.621Z,87962.00
2023-05-12T06:18:37.694Z,87966.00
2023-05-12T06:19:37.537Z,87966.00
2023-05-12T06:20:37.515Z,87966.00
2023-05-12T06:21:37.489Z,87968.00
2023-05-12T06:22:37.458Z,87970.00
2023-05-12T06:23:37.447Z,87970.00
2023-05-12T06:24:37.417Z,87968.00
2023-05-12T06:25:38.184Z,87972.00
2023-05-12T06:26:39.174Z,87974.00
2023-05-12T06:27:37.446Z,87972.00
2023-05-12T06:28:37.434Z,87972.00
2023-05-12T06:29:37.349Z,87972.00
2023-05-12T06:30:37.251Z,87972.00
2023-05-12T06:31:37.451Z,87974.00
2023-05-12T06:32:37.444Z,87974.00
2023-05-12T06:33:37.378Z,87974.00
2023-05-12T06:34:37.426Z,87976.00
2023-05-12T06:35:37.431Z,87976.00
2023-05-12T06:36:37.497Z,87976.00
2023-05-12T06:37:37.549Z,87974.00
2023-05-12T06:38:37.557Z,87976.00
2023-05-12T06:39:37.631Z,87974.00
2023-05-12T06:40:37.793Z,87976.00
2023-05-12T06:41:37.676Z,87974.00
2023-05-12T06:42:37.751Z,87972.00
2023-05-12T06:43:37.728Z,87974.00
2023-05-12T06:44:38.489Z,87974.00
2023-05-12T06:45:37.649Z,87976.00
2023-05-12T06:46:37.768Z,87972.00
2023-05-12T06:47:37.780Z,87974.00
2023-05-12T06:48:37.517Z,87972.00
2023-05-12T06:49:37.526Z,87974.00
2023-05-12T06:50:37.490Z,87972.00
2023-05-12T06:51:37.482Z,87974.00
2023-05-12T06:52:37.487Z,87972.00
2023-05-12T06:53:37.578Z,87970.00
2023-05-12T06:54:37.551Z,87974.00
2023-05-12T06:55:37.579Z,87970.00
2023-05-12T06:56:37.569Z,87968.00
2023-05-12T06:57:37.806Z,87968.00
2023-05-12T06:58:37.633Z,87968.00
2023-05-12T06:59:37.644Z,87968.00
2023-05-12T07:00:37.640Z,87968.00
2023-05-12T07:01:37.745Z,87968.00
2023-05-12T07:02:37.726Z,87968.00
2023-05-12T07:03:37.650Z,87970.00
2023-05-12T07:04:37.593Z,87968.00
2023-05-12T07:05:37.720Z,87968.00
2023-05-12T07:06:37.532Z,87968.00
2023-05-12T07:07:37.543Z,87968.00
2023-05-12T07:08:37.496Z,87968.00
2023-05-12T07:09:37.452Z,87966.00
2023-05-12T07:10:38.286Z,87964.00
2023-05-12T07:11:37.480Z,87968.00
2023-05-12T07:12:37.463Z,87964.00
2023-05-12T07:13:38.204Z,87964.00
2023-05-12T07:14:37.320Z,87966.00
2023-05-12T07:15:37.298Z,87964.00
2023-05-12T07:16:37.457Z,87964.00
2023-05-12T07:17:37.373Z,87960.00
2023-05-12T07:18:37.272Z,87960.00
2023-05-12T07:19:37.360Z,87960.00
2023-05-12T07:20:37.256Z,87962.00
2023-05-12T07:21:37.451Z,87964.00
2023-05-12T07:22:38.793Z,87960.00
2023-05-12T07:23:37.434Z,87958.00
2023-05-12T07:24:37.285Z,87956.00
2023-05-12T07:25:37.349Z,87954.00
2023-05-12T07:26:37.313Z,87956.00
2023-05-12T07:27:37.373Z,87954.00
2023-05-12T07:28:37.567Z,87954.00
2023-05-12T07:29:37.385Z,87954.00
2023-05-12T07:30:37.329Z,87952.00
2023-05-12T07:31:37.409Z,87954.00
2023-05-12T07:32:37.428Z,87956.00
2023-05-12T07:33:38.331Z,87954.00
2023-05-12T07:34:37.401Z,87954.00
2023-05-12T07:35:37.349Z,87952.00
2023-05-12T07:36:37.470Z,87948.00
2023-05-12T07:37:37.323Z,87950.00
2023-05-12T07:38:37.479Z,87948.00
2023-05-12T07:39:37.326Z,87946.00
2023-05-12T07:40:38.197Z,87946.00
2023-05-12T07:41:37.503Z,87946.00
2023-05-12T07:42:37.412Z,87946.00
2023-05-12T07:43:37.303Z,87944.00
2023-05-12T07:44:37.387Z,87944.00
2023-05-12T07:45:37.213Z,87940.00
2023-05-12T07:46:37.318Z,87942.00
2023-05-12T07:47:37.197Z,87944.00
2023-05-12T07:48:37.133Z,87938.00
2023-05-12T07:49:37.177Z,87936.00
2023-05-12T07:50:37.100Z,87944.00
2023-05-12T07:51:37.048Z,87944.00
2023-05-12T07:52:37.058Z,87942.00
2023-05-12T07:53:37.193Z,87942.00
2023-05-12T07:54:37.125Z,87944.00
2023-05-12T07:55:37.171Z,87940.00
2023-05-12T07:56:37.117Z,87942.00
2023-05-12T07:57:37.191Z,87940.00
2023-05-12T07:58:37.605Z,87940.00
2023-05-12T07:59:37.607Z,87940.00
2023-05-12T08:00:37.062Z,87938.00
2023-05-12T08:01:37.003Z,87940.00
2023-05-12T08:02:37.129Z,87940.00
2023-05-12T08:03:37.216Z,87938.00
2023-05-12T08:04:37.099Z,87936.00
2023-05-12T08:05:37.069Z,87938.00
2023-05-12T08:06:36.862Z,87938.00
2023-05-12T08:07:36.848Z,87938.00
2023-05-12T08:08:36.810Z,87936.00
2023-05-12T08:09:37.707Z,87940.00
2023-05-12T08:10:36.823Z,87938.00
2023-05-12T08:11:36.722Z,87938.00
2023-05-12T08:12:36.729Z,87936.00
2023-05-12T08:13:36.790Z,87940.00
2023-05-12T08:14:36.648Z,87940.00
2023-05-12T08:15:36.654Z,87940.00
2023-05-12T08:16:36.633Z,87940.00
2023-05-12T08:17:36.704Z,87938.00
2023-05-12T08:18:36.636Z,87936.00
2023-05-12T08:19:36.711Z,87938.00
2023-05-12T08:20:36.491Z,87938.00
2023-05-12T08:21:36.555Z,87936.00
2023-05-12T08:22:36.395Z,87938.00
2023-05-12T08:23:36.395Z,87940.00
2023-05-12T08:24:36.396Z,87938.00
2023-05-12T08:25:36.407Z,87938.00
2023-05-12T08:26:36.412Z,87940.00
2023-05-12T08:27:36.346Z,87940.00
2023-05-12T08:28:36.294Z,87944.00
2023-05-12T08:29:36.261Z,87944.00
2023-05-12T08:30:36.284Z,87944.00
2023-05-12T08:31:36.233Z,87942.00
2023-05-12T08:32:36.225Z,87938.00
2023-05-12T08:33:36.168Z,87940.00
2023-05-12T08:34:36.167Z,87940.00
2023-05-12T08:35:36.100Z,87940.00
2023-05-12T08:36:36.067Z,87944.00
2023-05-12T08:37:36.082Z,87944.00
2023-05-12T08:38:36.010Z,87944.00
2023-05-12T08:39:35.948Z,87944.00
2023-05-12T08:40:35.921Z,87942.00
2023-05-12T08:41:35.889Z,87944.00
2023-05-12T08:42:35.865Z,87944.00
2023-05-12T08:43:35.835Z,87942.00
2023-05-12T08:44:35.808Z,87942.00
2023-05-12T08:45:35.913Z,87944.00
2023-05-12T08:46:35.809Z,87944.00
2023-05-12T08:47:35.748Z,87944.00
2023-05-12T08:48:35.708Z,87944.00
2023-05-12T08:49:35.688Z,87944.00
2023-05-12T08:50:35.664Z,87944.00
2023-05-12T08:51:35.585Z,87944.00
2023-05-12T08:52:35.621Z,87942.00
2023-05-12T08:53:35.602Z,87942.00
2023-05-12T08:54:42.463Z,87944.00
2023-05-12T08:55:35.590Z,87942.00
2023-05-12T08:57:36.423Z,87938.00
2023-05-12T08:58:41.097Z,87942.00
2023-05-12T08:59:36.413Z,87944.00
2023-05-12T09:00:35.467Z,87944.00
2023-05-12T09:01:36.751Z,87944.00
2023-05-12T09:02:51.223Z,87942.00
2023-05-12T09:03:36.292Z,87944.00
2023-05-12T09:04:35.288Z,87942.00
2023-05-12T09:05:35.237Z,87944.00
2023-05-12T09:06:35.164Z,87942.00
2023-05-12T09:07:35.133Z,87942.00
2023-05-12T09:08:35.266Z,87942.00
2023-05-12T09:09:35.098Z,87942.00
2023-05-12T09:10:35.868Z,87942.00
2023-05-12T09:11:35.000Z,87944.00
2023-05-12T09:12:35.033Z,87944.00
2023-05-12T09:13:35.108Z,87946.00
2023-05-12T09:14:35.117Z,87944.00
2023-05-12T09:15:35.130Z,87946.00
2023-05-12T09:16:35.236Z,87946.00
2023-05-12T09:17:35.243Z,87946.00
2023-05-12T09:18:35.298Z,87946.00
2023-05-12T09:19:35.254Z,87946.00
2023-05-12T09:20:35.299Z,87944.00
2023-05-12T09:21:35.338Z,87944.00
2023-05-12T09:22:35.362Z,87946.00
2023-05-12T09:23:35.422Z,87948.00
2023-05-12T09:24:35.421Z,87944.00
2023-05-12T09:25:35.452Z,87948.00
2023-05-12T09:26:35.468Z,87944.00
2023-05-12T09:27:35.486Z,87948.00
2023-05-12T09:28:35.517Z,87948.00
2023-05-12T09:29:39.872Z,87946.00
2023-05-12T09:30:36.487Z,87948.00
2023-05-12T09:31:35.483Z,87946.00
2023-05-12T09:32:35.472Z,87946.00
2023-05-12T09:33:35.450Z,87946.00
2023-05-12T09:34:35.320Z,87946.00
2023-05-12T09:35:35.261Z,87948.00
2023-05-12T09:36:35.270Z,87950.00
2023-05-12T09:37:35.203Z,87946.00
2023-05-12T09:38:35.181Z,87946.00
2023-05-12T09:39:35.192Z,87948.00
2023-05-12T09:40:35.076Z,87944.00
2023-05-12T09:41:35.259Z,87946.00
2023-05-12T09:42:35.030Z,87944.00
2023-05-12T09:43:35.094Z,87940.00
2023-05-12T09:44:34.972Z,87940.00
2023-05-12T09:45:34.994Z,87942.00
2023-05-12T09:46:34.949Z,87942.00
2023-05-12T09:47:34.912Z,87940.00
2023-05-12T09:48:34.911Z,87940.00
2023-05-12T09:49:34.837Z,87938.00
2023-05-12T09:50:44.233Z,87942.00
2023-05-12T09:51:35.832Z,87940.00
2023-05-12T09:52:34.815Z,87942.00
2023-05-12T09:53:34.792Z,87940.00
2023-05-12T09:54:34.787Z,87938.00
2023-05-12T09:55:34.765Z,87938.00
2023-05-12T09:56:34.741Z,87940.00
2023-05-12T09:57:34.680Z,87942.00
2023-05-12T09:58:34.744Z,87940.00
2023-05-12T09:59:34.796Z,87938.00
2023-05-12T10:00:58.578Z,87940.00
2023-05-12T10:01:35.620Z,87942.00
2023-05-12T10:02:34.659Z,87938.00
2023-05-12T10:03:34.544Z,87942.00
2023-05-12T10:04:34.625Z,87946.00
2023-05-12T10:05:34.562Z,87942.00
2023-05-12T10:06:34.486Z,87942.00
2023-05-12T10:07:34.500Z,87942.00
2023-05-12T10:08:34.446Z,87942.00
2023-05-12T10:09:34.410Z,87946.00
2023-05-12T10:10:34.384Z,87944.00
2023-05-12T10:11:34.370Z,87946.00
2023-05-12T10:12:34.585Z,87944.00
2023-05-12T10:13:34.506Z,87944.00
2023-05-12T10:14:34.483Z,87942.00
2023-05-12T10:15:34.545Z,87944.00
2023-05-12T10:16:34.623Z,87940.00
2023-05-12T10:17:34.619Z,87942.00
2023-05-12T10:18:34.517Z,87942.00
2023-05-12T10:19:34.408Z,87944.00
2023-05-12T10:20:34.412Z,87946.00
2023-05-12T10:21:34.333Z,87944.00
2023-05-12T10:22:34.373Z,87946.00
2023-05-12T10:23:36.444Z,87946.00
2023-05-12T10:24:34.254Z,87944.00
2023-05-12T10:25:34.176Z,87944.00
2023-05-12T10:26:34.146Z,87940.00
2023-05-12T10:27:34.125Z,87942.00
2023-05-12T10:28:34.092Z,87940.00
2023-05-12T10:29:34.112Z,87944.00
2023-05-12T10:30:34.010Z,87946.00
2023-05-12T10:31:34.013Z,87944.00
2023-05-12T10:32:33.963Z,87944.00
2023-05-12T10:33:33.887Z,87942.00
2023-05-12T10:34:33.924Z,87940.00
2023-05-12T10:35:33.838Z,87938.00
2023-05-12T10:36:33.809Z,87940.00
2023-05-12T10:37:33.750Z,87938.00
2023-05-12T10:38:33.711Z,87940.00
2023-05-12T10:39:33.686Z,87938.00
2023-05-12T10:40:33.667Z,87942.00
2023-05-12T10:41:33.646Z,87942.00
2023-05-12T10:42:33.539Z,87944.00
2023-05-12T10:43:33.741Z,87944.00
2023-05-12T10:44:33.548Z,87942.00
2023-05-12T10:45:33.415Z,87944.00
2023-05-12T10:46:33.414Z,87944.00
2023-05-12T10:47:33.447Z,87944.00
2023-05-12T10:48:33.363Z,87944.00
2023-05-12T10:49:33.579Z,87944.00
2023-05-12T10:50:33.247Z,87944.00
2023-05-12T10:51:33.290Z,87942.00
2023-05-12T10:52:33.222Z,87946.00
2023-05-12T10:53:45.225Z,87944.00
2023-05-12T10:54:34.145Z,87944.00
2023-05-12T10:55:33.255Z,87946.00
2023-05-12T10:56:33.219Z,87948.00
2023-05-12T10:57:33.648Z,87950.00
2023-05-12T10:58:33.267Z,87950.00
2023-05-12T10:59:33.149Z,87948.00
2023-05-12T11:00:33.159Z,87944.00
2023-05-12T11:01:33.384Z,87944.00
2023-05-12T11:02:34.600Z,87944.00
2023-05-12T11:03:33.596Z,87944.00
2023-05-12T11:04:33.035Z,87944.00
2023-05-12T11:05:33.431Z,87948.00
2023-05-12T11:06:32.870Z,87946.00
2023-05-12T11:07:33.308Z,87948.00
2023-05-12T11:08:32.789Z,87944.00
2023-05-12T11:09:32.807Z,87950.00
2023-05-12T11:10:33.537Z,87946.00
2023-05-12T11:11:32.554Z,87948.00
2023-05-12T11:12:32.844Z,87946.00
2023-05-12T11:13:32.487Z,87948.00
2023-05-12T11:14:32.444Z,87950.00
2023-05-12T11:15:32.401Z,87950.00
2023-05-12T11:16:32.407Z,87950.00
2023-05-12T11:17:32.664Z,87950.00
2023-05-12T11:18:32.465Z,87950.00
2023-05-12T11:19:32.299Z,87946.00
2023-05-12T11:20:32.265Z,87948.00
2023-05-12T11:21:32.249Z,87946.00
2023-05-12T11:22:32.216Z,87948.00
2023-05-12T11:23:32.144Z,87946.00
2023-05-12T11:24:32.395Z,87946.00
2023-05-12T11:25:32.131Z,87948.00
2023-05-12T11:26:32.039Z,87948.00
2023-05-12T11:27:32.079Z,87948.00
2023-05-12T11:28:32.010Z,87950.00
2023-05-12T11:29:31.985Z,87948.00
2023-05-12T11:30:31.928Z,87948.00
2023-05-12T11:31:31.935Z,87948.00
2023-05-12T11:32:31.910Z,87948.00
2023-05-12T11:33:31.878Z,87948.00
2023-05-12T11:34:31.820Z,87950.00
2023-05-12T11:35:31.845Z,87948.00
2023-05-12T11:37:50.947Z,87946.00
2023-05-12T11:38:50.926Z,87946.00
2023-05-12T11:39:50.921Z,87944.00
2023-05-12T11:40:50.904Z,87944.00
2023-05-12T11:41:52.992Z,87944.00
2023-05-12T11:42:51.911Z,87946.00
2023-05-12T11:43:50.881Z,87948.00
2023-05-12T11:44:50.874Z,87946.00
2023-05-12T11:45:50.889Z,87948.00
2023-05-12T11:46:50.864Z,87948.00
2023-05-12T11:47:50.845Z,87946.00